Crane, Washington
Current Conditions -  °F | °C
As of 11:00 AM on Friday 24 Oct 2014 (Local Time) from CYWH Reporting Station
Overcast Overcast  
Wind Chill: 11°   Ceiling: 1300
Heat Index: 11°   Visibility: 15mi
Dew Point:   Wind: 6mph
Humidity: 82%   Direction: 70°ENE
Pressure: 30.05"   Gusts: NA
Location:  48.1359°N, 123.734°W
Report Text: CYWH 241800Z 07005KT 15SM FEW008 BKN013 OVC090 11/08 A3005 RMKSF2SC5AC2 SLP177
Loading
Personal Weather Stations






























Interactive Weather Map
Tropical Storm Tracking
New forecast layout! Learn more

10-Day Weather Forecast

Advertisements
Track Severe Weather on mobile